sensor_id;sensor_type;location;lat;lon;timestamp;pressure;altitude;pressure_sealevel;temperature;humidity
68634;BME280;55625;47.072;22.192;2022-12-07T00:01:35;99791.34;;;1.60;100.00
68634;BME280;55625;47.072;22.192;2022-12-07T00:04:04;99800.13;;;1.59;100.00
68634;BME280;55625;47.072;22.192;2022-12-07T00:06:42;99805.31;;;1.57;100.00
68634;BME280;55625;47.072;22.192;2022-12-07T00:09:17;99794.47;;;1.51;100.00
68634;BME280;55625;47.072;22.192;2022-12-07T00:11:44;99795.66;;;1.50;100.00
68634;BME280;55625;47.072;22.192;2022-12-07T00:14:13;99799.25;;;1.47;100.00
68634;BME280;55625;47.072;22.192;2022-12-07T00:16:40;99796.03;;;1.45;100.00
68634;BME280;55625;47.072;22.192;2022-12-07T00:19:06;99794.44;;;1.44;100.00
68634;BME280;55625;47.072;22.192;2022-12-07T00:21:34;99794.81;;;1.39;100.00
68634;BME280;55625;47.072;22.192;2022-12-07T00:24:02;99793.56;;;1.33;100.00
68634;BME280;55625;47.072;22.192;2022-12-07T00:26:32;99789.16;;;1.29;100.00
68634;BME280;55625;47.072;22.192;2022-12-07T00:29:02;99803.50;;;1.23;100.00
68634;BME280;55625;47.072;22.192;2022-12-07T00:31:32;99797.88;;;1.20;100.00
68634;BME280;55625;47.072;22.192;2022-12-07T00:33:59;99803.47;;;1.20;100.00
68634;BME280;55625;47.072;22.192;2022-12-07T00:36:25;99791.88;;;1.18;100.00
68634;BME280;55625;47.072;22.192;2022-12-07T00:38:52;99795.47;;;1.18;100.00
68634;BME280;55625;47.072;22.192;2022-12-07T00:41:23;99801.84;;;1.15;100.00
68634;BME280;55625;47.072;22.192;2022-12-07T00:43:50;99794.63;;;1.14;100.00
68634;BME280;55625;47.072;22.192;2022-12-07T00:46:18;99808.56;;;1.07;100.00
68634;BME280;55625;47.072;22.192;2022-12-07T00:48:45;99799.34;;;1.03;100.00
68634;BME280;55625;47.072;22.192;2022-12-07T00:51:13;99800.94;;;1.01;100.00
68634;BME280;55625;47.072;22.192;2022-12-07T00:53:40;99799.69;;;0.95;100.00
68634;BME280;55625;47.072;22.192;2022-12-07T00:56:08;99798.84;;;0.90;100.00
68634;BME280;55625;47.072;22.192;2022-12-07T00:58:35;99811.97;;;0.86;100.00
68634;BME280;55625;47.072;22.192;2022-12-07T01:01:03;99796.78;;;0.80;100.00
68634;BME280;55625;47.072;22.192;2022-12-07T01:03:30;99800.75;;;0.79;100.00
68634;BME280;55625;47.072;22.192;2022-12-07T01:05:57;99794.38;;;0.79;100.00
68634;BME280;55625;47.072;22.192;2022-12-07T01:08:24;99787.94;;;0.75;100.00
68634;BME280;55625;47.072;22.192;2022-12-07T01:11:03;99781.56;;;0.74;100.00
68634;BME280;55625;47.072;22.192;2022-12-07T01:13:30;99779.16;;;0.73;100.00
68634;BME280;55625;47.072;22.192;2022-12-07T01:16:02;99773.13;;;0.67;100.00
68634;BME280;55625;47.072;22.192;2022-12-07T01:18:30;99775.50;;;0.65;100.00
68634;BME280;55625;47.072;22.192;2022-12-07T01:21:14;99771.84;;;0.61;100.00
68634;BME280;55625;47.072;22.192;2022-12-07T01:23:40;99769.00;;;0.54;100.00
68634;BME280;55625;47.072;22.192;2022-12-07T01:26:10;99767.78;;;0.51;100.00
68634;BME280;55625;47.072;22.192;2022-12-07T01:28:37;99774.97;;;0.52;100.00
68634;BME280;55625;47.072;22.192;2022-12-07T01:31:07;99774.16;;;0.52;100.00
68634;BME280;55625;47.072;22.192;2022-12-07T01:33:36;99769.75;;;0.47;100.00
68634;BME280;55625;47.072;22.192;2022-12-07T01:36:17;99766.91;;;0.44;100.00
68634;BME280;55625;47.072;22.192;2022-12-07T01:38:44;99765.31;;;0.43;100.00
68634;BME280;55625;47.072;22.192;2022-12-07T01:41:11;99766.50;;;0.42;100.00
68634;BME280;55625;47.072;22.192;2022-12-07T01:46:45;99754.09;;;0.36;100.00
68634;BME280;55625;47.072;22.192;2022-12-07T01:49:42;99756.88;;;0.36;100.00
68634;BME280;55625;47.072;22.192;2022-12-07T01:52:31;99746.94;;;0.38;100.00
68634;BME280;55625;47.072;22.192;2022-12-07T01:55:09;99752.50;;;0.35;100.00
68634;BME280;55625;47.072;22.192;2022-12-07T01:57:41;99743.25;;;0.30;100.00
68634;BME280;55625;47.072;22.192;2022-12-07T02:00:09;99748.41;;;0.28;100.00
68634;BME280;55625;47.072;22.192;2022-12-07T02:03:00;99746.81;;;0.27;100.00
68634;BME280;55625;47.072;22.192;2022-12-07T02:05:30;99753.59;;;0.26;100.00
68634;BME280;55625;47.072;22.192;2022-12-07T02:07:57;99750.78;;;0.26;100.00
68634;BME280;55625;47.072;22.192;2022-12-07T02:10:30;99749.16;;;0.22;100.00
68634;BME280;55625;47.072;22.192;2022-12-07T02:13:08;99748.34;;;0.21;100.00
68634;BME280;55625;47.072;22.192;2022-12-07T02:21:29;99752.75;;;0.22;100.00
68634;BME280;55625;47.072;22.192;2022-12-07T02:24:19;99752.34;;;0.20;100.00
68634;BME280;55625;47.072;22.192;2022-12-07T02:30:06;99746.72;;;0.17;100.00
68634;BME280;55625;47.072;22.192;2022-12-07T02:33:19;99752.28;;;0.17;100.00
68634;BME280;55625;47.072;22.192;2022-12-07T02:36:12;99750.66;;;0.12;100.00
68634;BME280;55625;47.072;22.192;2022-12-07T02:38:56;99757.81;;;0.10;100.00
68634;BME280;55625;47.072;22.192;2022-12-07T02:44:04;99750.22;;;0.07;100.00
68634;BME280;55625;47.072;22.192;2022-12-07T02:46:49;99754.56;;;0.04;100.00
68634;BME280;55625;47.072;22.192;2022-12-07T02:49:17;99743.41;;;0.04;100.00
68634;BME280;55625;47.072;22.192;2022-12-07T02:51:46;99755.38;;;0.05;100.00
68634;BME280;55625;47.072;22.192;2022-12-07T02:54:15;99745.00;;;0.05;100.00
68634;BME280;55625;47.072;22.192;2022-12-07T03:00:00;99740.28;;;0.09;100.00
68634;BME280;55625;47.072;22.192;2022-12-07T03:08:11;99736.44;;;0.28;100.00
68634;BME280;55625;47.072;22.192;2022-12-07T03:16:44;99731.38;;;0.37;100.00
68634;BME280;55625;47.072;22.192;2022-12-07T03:19:17;99726.59;;;0.38;100.00
68634;BME280;55625;47.072;22.192;2022-12-07T03:21:59;99721.44;;;0.40;100.00
68634;BME280;55625;47.072;22.192;2022-12-07T03:24:36;99724.25;;;0.43;100.00
68634;BME280;55625;47.072;22.192;2022-12-07T03:27:20;99717.88;;;0.46;100.00
68634;BME280;55625;47.072;22.192;2022-12-07T03:29:54;99722.31;;;0.51;100.00
68634;BME280;55625;47.072;22.192;2022-12-07T03:32:34;99707.56;;;0.50;100.00
68634;BME280;55625;47.072;22.192;2022-12-07T03:35:14;99715.13;;;0.50;100.00
68634;BME280;55625;47.072;22.192;2022-12-07T03:43:18;99711.88;;;0.41;100.00
68634;BME280;55625;47.072;22.192;2022-12-07T03:52:11;99720.66;;;0.43;100.00
68634;BME280;55625;47.072;22.192;2022-12-07T03:54:59;99720.69;;;0.46;100.00
68634;BME280;55625;47.072;22.192;2022-12-07T03:57:28;99719.53;;;0.51;100.00
68634;BME280;55625;47.072;22.192;2022-12-07T03:59:57;99711.97;;;0.55;100.00
68634;BME280;55625;47.072;22.192;2022-12-07T04:02:26;99708.78;;;0.56;100.00
68634;BME280;55625;47.072;22.192;2022-12-07T04:04:52;99718.78;;;0.61;100.00
68634;BME280;55625;47.072;22.192;2022-12-07T04:07:18;99706.09;;;0.64;100.00
68634;BME280;55625;47.072;22.192;2022-12-07T04:09:45;99712.50;;;0.68;100.00
68634;BME280;55625;47.072;22.192;2022-12-07T04:12:10;99716.91;;;0.72;100.00
68634;BME280;55625;47.072;22.192;2022-12-07T04:14:36;99717.72;;;0.76;100.00
68634;BME280;55625;47.072;22.192;2022-12-07T04:17:02;99707.38;;;0.80;100.00
68634;BME280;55625;47.072;22.192;2022-12-07T04:19:32;99713.00;;;0.84;100.00
68634;BME280;55625;47.072;22.192;2022-12-07T04:22:00;99723.00;;;0.88;100.00
68634;BME280;55625;47.072;22.192;2022-12-07T04:24:27;99718.63;;;0.91;100.00
68634;BME280;55625;47.072;22.192;2022-12-07T04:26:53;99715.09;;;0.94;100.00
68634;BME280;55625;47.072;22.192;2022-12-07T04:29:19;99716.28;;;0.97;100.00
68634;BME280;55625;47.072;22.192;2022-12-07T04:31:45;99717.91;;;0.98;100.00
68634;BME280;55625;47.072;22.192;2022-12-07T04:34:12;99716.72;;;1.02;100.00
68634;BME280;55625;47.072;22.192;2022-12-07T04:36:39;99717.13;;;1.04;100.00
68634;BME280;55625;47.072;22.192;2022-12-07T04:39:06;99711.56;;;1.08;100.00
68634;BME280;55625;47.072;22.192;2022-12-07T04:41:33;99707.56;;;1.09;100.00
68634;BME280;55625;47.072;22.192;2022-12-07T04:44:03;99709.97;;;1.07;100.00
68634;BME280;55625;47.072;22.192;2022-12-07T04:46:32;99714.34;;;1.08;100.00
68634;BME280;55625;47.072;22.192;2022-12-07T04:48:58;99714.38;;;1.11;100.00
68634;BME280;55625;47.072;22.192;2022-12-07T04:51:27;99713.97;;;1.13;100.00
68634;BME280;55625;47.072;22.192;2022-12-07T04:53:54;99712.00;;;1.13;100.00
68634;BME280;55625;47.072;22.192;2022-12-07T04:56:21;99712.78;;;1.14;100.00
68634;BME280;55625;47.072;22.192;2022-12-07T04:58:47;99720.38;;;1.13;100.00
68634;BME280;55625;47.072;22.192;2022-12-07T05:01:15;99714.41;;;1.15;100.00
68634;BME280;55625;47.072;22.192;2022-12-07T05:03:42;99705.59;;;1.13;100.00
68634;BME280;55625;47.072;22.192;2022-12-07T05:06:09;99715.59;;;1.14;100.00
68634;BME280;55625;47.072;22.192;2022-12-07T05:08:35;99713.97;;;1.13;100.00
68634;BME280;55625;47.072;22.192;2022-12-07T05:11:02;99712.78;;;1.10;100.00
68634;BME280;55625;47.072;22.192;2022-12-07T05:13:29;99717.97;;;1.12;100.00
68634;BME280;55625;47.072;22.192;2022-12-07T05:15:54;99725.97;;;1.13;100.00
68634;BME280;55625;47.072;22.192;2022-12-07T05:18:20;99727.97;;;1.13;100.00
68634;BME280;55625;47.072;22.192;2022-12-07T05:20:46;99725.16;;;1.13;100.00
68634;BME280;55625;47.072;22.192;2022-12-07T05:23:12;99719.56;;;1.13;100.00
68634;BME280;55625;47.072;22.192;2022-12-07T05:25:38;99725.56;;;1.15;100.00
68634;BME280;55625;47.072;22.192;2022-12-07T05:28:05;99725.19;;;1.16;100.00
68634;BME280;55625;47.072;22.192;2022-12-07T05:30:31;99729.19;;;1.19;100.00
68634;BME280;55625;47.072;22.192;2022-12-07T05:32:57;99733.19;;;1.21;100.00
68634;BME280;55625;47.072;22.192;2022-12-07T05:35:23;99728.03;;;1.23;100.00
68634;BME280;55625;47.072;22.192;2022-12-07T05:37:49;99727.66;;;1.25;100.00
68634;BME280;55625;47.072;22.192;2022-12-07T05:40:15;99722.47;;;1.27;100.00
68634;BME280;55625;47.072;22.192;2022-12-07T05:42:42;99729.28;;;1.30;100.00
68634;BME280;55625;47.072;22.192;2022-12-07T05:45:09;99731.66;;;1.31;100.00
68634;BME280;55625;47.072;22.192;2022-12-07T05:47:36;99727.28;;;1.34;100.00
68634;BME280;55625;47.072;22.192;2022-12-07T05:50:03;99724.50;;;1.37;100.00
68634;BME280;55625;47.072;22.192;2022-12-07T05:52:30;99726.53;;;1.40;100.00
68634;BME280;55625;47.072;22.192;2022-12-07T05:54:55;99718.13;;;1.40;100.00
68634;BME280;55625;47.072;22.192;2022-12-07T05:57:21;99721.72;;;1.41;100.00
68634;BME280;55625;47.072;22.192;2022-12-07T05:59:47;99720.53;;;1.42;100.00
68634;BME280;55625;47.072;22.192;2022-12-07T06:02:15;99725.72;;;1.43;100.00
68634;BME280;55625;47.072;22.192;2022-12-07T06:04:44;99726.53;;;1.44;100.00
68634;BME280;55625;47.072;22.192;2022-12-07T06:07:14;99723.72;;;1.40;100.00
68634;BME280;55625;47.072;22.192;2022-12-07T06:09:41;99721.31;;;1.35;100.00
68634;BME280;55625;47.072;22.192;2022-12-07T06:12:10;99730.88;;;1.34;100.00
68634;BME280;55625;47.072;22.192;2022-12-07T06:14:54;99730.50;;;1.36;100.00
68634;BME280;55625;47.072;22.192;2022-12-07T06:17:20;99717.31;;;1.36;100.00
68634;BME280;55625;47.072;22.192;2022-12-07T06:19:46;99726.13;;;1.38;100.00
68634;BME280;55625;47.072;22.192;2022-12-07T06:22:12;99722.50;;;1.38;100.00
68634;BME280;55625;47.072;22.192;2022-12-07T06:24:38;99718.91;;;1.37;100.00
68634;BME280;55625;47.072;22.192;2022-12-07T06:27:05;99726.91;;;1.35;100.00
68634;BME280;55625;47.072;22.192;2022-12-07T06:29:31;99733.28;;;1.32;100.00
68634;BME280;55625;47.072;22.192;2022-12-07T06:31:57;99725.66;;;1.29;100.00
68634;BME280;55625;47.072;22.192;2022-12-07T06:34:26;99724.47;;;1.27;100.00
68634;BME280;55625;47.072;22.192;2022-12-07T06:36:53;99720.47;;;1.28;100.00
68634;BME280;55625;47.072;22.192;2022-12-07T06:39:23;99724.06;;;1.24;100.00
68634;BME280;55625;47.072;22.192;2022-12-07T06:41:50;99717.66;;;1.24;100.00
68634;BME280;55625;47.072;22.192;2022-12-07T06:44:18;99715.28;;;1.26;100.00
68634;BME280;55625;47.072;22.192;2022-12-07T06:46:44;99711.69;;;1.29;100.00
68634;BME280;55625;47.072;22.192;2022-12-07T06:49:10;99713.28;;;1.30;100.00
68634;BME280;55625;47.072;22.192;2022-12-07T06:51:36;99718.53;;;1.42;100.00
68634;BME280;55625;47.072;22.192;2022-12-07T06:54:10;99711.75;;;1.47;100.00
68634;BME280;55625;47.072;22.192;2022-12-07T06:56:37;99720.56;;;1.52;100.00
68634;BME280;55625;47.072;22.192;2022-12-07T06:59:04;99707.44;;;1.60;100.00
68634;BME280;55625;47.072;22.192;2022-12-07T07:01:33;99715.06;;;1.67;100.00
68634;BME280;55625;47.072;22.192;2022-12-07T07:04:00;99712.28;;;1.74;100.00
68634;BME280;55625;47.072;22.192;2022-12-07T07:06:26;99716.28;;;1.80;100.00
68634;BME280;55625;47.072;22.192;2022-12-07T07:08:52;99711.91;;;1.82;100.00
68634;BME280;55625;47.072;22.192;2022-12-07T07:11:18;99710.34;;;1.85;100.00
68634;BME280;55625;47.072;22.192;2022-12-07T07:13:44;99719.53;;;1.89;100.00
68634;BME280;55625;47.072;22.192;2022-12-07T07:16:10;99712.34;;;1.95;100.00
68634;BME280;55625;47.072;22.192;2022-12-07T07:18:36;99706.75;;;2.02;100.00
68634;BME280;55625;47.072;22.192;2022-12-07T07:21:03;99710.38;;;2.06;100.00
68634;BME280;55625;47.072;22.192;2022-12-07T07:23:29;99707.97;;;2.12;100.00
68634;BME280;55625;47.072;22.192;2022-12-07T07:25:55;99715.22;;;2.16;100.00
68634;BME280;55625;47.072;22.192;2022-12-07T07:28:21;99710.81;;;2.23;100.00
68634;BME280;55625;47.072;22.192;2022-12-07T07:30:47;99717.22;;;2.27;100.00
68634;BME280;55625;47.072;22.192;2022-12-07T07:33:13;99720.81;;;2.31;100.00
68634;BME280;55625;47.072;22.192;2022-12-07T07:35:38;99720.81;;;2.34;100.00
68634;BME280;55625;47.072;22.192;2022-12-07T07:38:05;99716.81;;;2.35;100.00
68634;BME280;55625;47.072;22.192;2022-12-07T07:40:32;99716.41;;;2.40;100.00
68634;BME280;55625;47.072;22.192;2022-12-07T07:42:58;99704.81;;;2.42;100.00
68634;BME280;55625;47.072;22.192;2022-12-07T07:45:26;99715.25;;;2.48;100.00
68634;BME280;55625;47.072;22.192;2022-12-07T07:47:52;99719.25;;;2.55;100.00
68634;BME280;55625;47.072;22.192;2022-12-07T07:50:19;99709.63;;;2.59;100.00
68634;BME280;55625;47.072;22.192;2022-12-07T07:52:45;99717.63;;;2.64;100.00
68634;BME280;55625;47.072;22.192;2022-12-07T07:55:12;99710.44;;;2.70;100.00
68634;BME280;55625;47.072;22.192;2022-12-07T07:57:40;99705.25;;;2.79;100.00
68634;BME280;55625;47.072;22.192;2022-12-07T08:00:13;99709.22;;;2.89;100.00
68634;BME280;55625;47.072;22.192;2022-12-07T08:02:40;99718.81;;;2.99;100.00
68634;BME280;55625;47.072;22.192;2022-12-07T08:05:07;99714.81;;;3.07;100.00
68634;BME280;55625;47.072;22.192;2022-12-07T08:07:33;99718.41;;;3.11;100.00
68634;BME280;55625;47.072;22.192;2022-12-07T08:09:58;99728.81;;;3.18;100.00
68634;BME280;55625;47.072;22.192;2022-12-07T08:12:24;99718.78;;;3.20;100.00
68634;BME280;55625;47.072;22.192;2022-12-07T08:14:50;99723.97;;;3.25;100.00
68634;BME280;55625;47.072;22.192;2022-12-07T08:17:16;99730.78;;;3.31;100.00
68634;BME280;55625;47.072;22.192;2022-12-07T08:19:41;99728.34;;;3.40;100.00
68634;BME280;55625;47.072;22.192;2022-12-07T08:22:07;99728.31;;;3.55;100.00
68634;BME280;55625;47.072;22.192;2022-12-07T08:24:34;99731.06;;;3.69;99.18
68634;BME280;55625;47.072;22.192;2022-12-07T08:27:02;99727.81;;;3.81;98.84
68634;BME280;55625;47.072;22.192;2022-12-07T08:29:28;99726.13;;;3.94;99.61
68634;BME280;55625;47.072;22.192;2022-12-07T08:31:54;99731.69;;;4.05;99.38
68634;BME280;55625;47.072;22.192;2022-12-07T08:34:20;99723.22;;;4.16;99.49
68634;BME280;55625;47.072;22.192;2022-12-07T08:36:46;99738.81;;;4.24;98.54
68634;BME280;55625;47.072;22.192;2022-12-07T08:39:12;99736.38;;;4.29;98.71
68634;BME280;55625;47.072;22.192;2022-12-07T08:41:38;99738.31;;;4.40;98.11
68634;BME280;55625;47.072;22.192;2022-12-07T08:44:04;99746.28;;;4.48;97.71
68634;BME280;55625;47.072;22.192;2022-12-07T08:46:49;99738.19;;;4.61;96.89
68634;BME280;55625;47.072;22.192;2022-12-07T08:49:24;99744.13;;;4.70;97.37
68634;BME280;55625;47.072;22.192;2022-12-07T08:51:51;99736.81;;;4.80;97.70
68634;BME280;55625;47.072;22.192;2022-12-07T08:54:18;99740.25;;;5.02;97.47
68634;BME280;55625;47.072;22.192;2022-12-07T08:56:46;99731.56;;;5.26;96.00
68634;BME280;55625;47.072;22.192;2022-12-07T08:59:15;99736.94;;;5.51;96.27
68634;BME280;55625;47.072;22.192;2022-12-07T09:01:43;99736.63;;;5.76;95.83
68634;BME280;55625;47.072;22.192;2022-12-07T09:04:09;99738.53;;;5.86;94.64
68634;BME280;55625;47.072;22.192;2022-12-07T09:06:34;99731.66;;;5.91;93.38
68634;BME280;55625;47.072;22.192;2022-12-07T09:09:02;99731.22;;;5.93;92.45
68634;BME280;55625;47.072;22.192;2022-12-07T09:11:28;99727.63;;;5.88;93.13
68634;BME280;55625;47.072;22.192;2022-12-07T09:13:55;99720.88;;;5.82;92.45
68634;BME280;55625;47.072;22.192;2022-12-07T09:16:21;99720.09;;;5.82;92.77
68634;BME280;55625;47.072;22.192;2022-12-07T09:18:47;99702.34;;;5.85;92.16
68634;BME280;55625;47.072;22.192;2022-12-07T09:21:13;99700.09;;;6.03;92.70
68634;BME280;55625;47.072;22.192;2022-12-07T09:23:39;99703.69;;;6.34;91.66
68634;BME280;55625;47.072;22.192;2022-12-07T09:26:06;99694.28;;;6.44;90.83
68634;BME280;55625;47.072;22.192;2022-12-07T09:28:32;99693.19;;;6.35;89.01
68634;BME280;55625;47.072;22.192;2022-12-07T09:30:58;99690.56;;;6.24;88.97
68634;BME280;55625;47.072;22.192;2022-12-07T09:33:23;99704.31;;;6.18;90.93
68634;BME280;55625;47.072;22.192;2022-12-07T09:35:52;99709.84;;;6.26;90.49
68634;BME280;55625;47.072;22.192;2022-12-07T09:38:19;99694.44;;;6.34;90.56
68634;BME280;55625;47.072;22.192;2022-12-07T09:40:46;99696.63;;;6.49;91.74
68634;BME280;55625;47.072;22.192;2022-12-07T09:43:30;99698.41;;;6.63;90.94
68634;BME280;55625;47.072;22.192;2022-12-07T09:45:56;99697.13;;;6.68;89.64
68634;BME280;55625;47.072;22.192;2022-12-07T09:48:35;99695.53;;;6.90;88.03
68634;BME280;55625;47.072;22.192;2022-12-07T09:51:13;99692.22;;;6.95;85.02
68634;BME280;55625;47.072;22.192;2022-12-07T09:53:40;99690.63;;;6.94;85.41
68634;BME280;55625;47.072;22.192;2022-12-07T09:56:10;99691.41;;;6.95;83.20
68634;BME280;55625;47.072;22.192;2022-12-07T09:58:37;99686.34;;;7.09;82.24
68634;BME280;55625;47.072;22.192;2022-12-07T10:01:21;99688.31;;;7.32;79.57
68634;BME280;55625;47.072;22.192;2022-12-07T10:03:59;99695.03;;;7.19;79.24
68634;BME280;55625;47.072;22.192;2022-12-07T10:06:26;99690.97;;;7.20;78.70
68634;BME280;55625;47.072;22.192;2022-12-07T10:08:52;99684.47;;;7.23;79.51
68634;BME280;55625;47.072;22.192;2022-12-07T10:11:17;99685.84;;;7.34;80.74
68634;BME280;55625;47.072;22.192;2022-12-07T10:13:52;99683.91;;;7.51;78.03
68634;BME280;55625;47.072;22.192;2022-12-07T10:18:52;99693.63;;;7.50;78.61
68634;BME280;55625;47.072;22.192;2022-12-07T10:21:23;99685.66;;;7.45;78.40
68634;BME280;55625;47.072;22.192;2022-12-07T10:24:24;99698.22;;;7.21;78.58
68634;BME280;55625;47.072;22.192;2022-12-07T10:26:52;99691.78;;;6.97;79.26
68634;BME280;55625;47.072;22.192;2022-12-07T10:29:29;99695.97;;;6.89;78.79
68634;BME280;55625;47.072;22.192;2022-12-07T10:34:39;99688.13;;;6.76;79.63
68634;BME280;55625;47.072;22.192;2022-12-07T10:39:53;99677.28;;;6.75;80.75
68634;BME280;55625;47.072;22.192;2022-12-07T10:42:29;99682.97;;;6.95;80.55
68634;BME280;55625;47.072;22.192;2022-12-07T10:45:17;99674.53;;;7.14;79.95
68634;BME280;55625;47.072;22.192;2022-12-07T11:00:08;99667.97;;;7.81;73.38
68634;BME280;55625;47.072;22.192;2022-12-07T11:16:56;99655.25;;;8.61;71.06
68634;BME280;55625;47.072;22.192;2022-12-07T11:20:01;99656.66;;;8.69;70.00
68634;BME280;55625;47.072;22.192;2022-12-07T11:35:05;99638.47;;;9.15;67.42
68634;BME280;55625;47.072;22.192;2022-12-07T11:37:16;99639.66;;;9.01;67.42
68634;BME280;55625;47.072;22.192;2022-12-07T11:42:41;99638.91;;;9.14;67.96
68634;BME280;55625;47.072;22.192;2022-12-07T11:45:20;99632.50;;;8.97;67.41
68634;BME280;55625;47.072;22.192;2022-12-07T11:47:59;99634.72;;;8.73;68.92
68634;BME280;55625;47.072;22.192;2022-12-07T12:06:51;99610.00;;;8.45;68.86
68634;BME280;55625;47.072;22.192;2022-12-07T12:09:31;99608.94;;;8.38;69.27
68634;BME280;55625;47.072;22.192;2022-12-07T12:18:13;99592.31;;;8.40;68.94
68634;BME280;55625;47.072;22.192;2022-12-07T12:20:56;99597.19;;;8.40;69.61
68634;BME280;55625;47.072;22.192;2022-12-07T12:23:43;99589.44;;;8.24;69.10
68634;BME280;55625;47.072;22.192;2022-12-07T12:26:20;99588.03;;;8.16;69.58
68634;BME280;55625;47.072;22.192;2022-12-07T12:29:06;99589.00;;;8.09;70.16
68634;BME280;55625;47.072;22.192;2022-12-07T12:31:43;99594.75;;;8.06;69.31
68634;BME280;55625;47.072;22.192;2022-12-07T12:34:40;99595.78;;;7.96;70.32
68634;BME280;55625;47.072;22.192;2022-12-07T12:37:39;99589.06;;;7.90;69.23
68634;BME280;55625;47.072;22.192;2022-12-07T12:42:51;99585.34;;;7.93;69.14
68634;BME280;55625;47.072;22.192;2022-12-07T12:45:30;99577.31;;;7.75;69.78
68634;BME280;55625;47.072;22.192;2022-12-07T12:48:00;99594.47;;;7.64;69.83
68634;BME280;55625;47.072;22.192;2022-12-07T12:50:38;99588.34;;;7.69;71.01
68634;BME280;55625;47.072;22.192;2022-12-07T12:53:24;99590.81;;;7.67;70.77
68634;BME280;55625;47.072;22.192;2022-12-07T12:58:36;99587.00;;;7.74;70.89
68634;BME280;55625;47.072;22.192;2022-12-07T13:03:54;99578.97;;;7.72;70.67
68634;BME280;55625;47.072;22.192;2022-12-07T13:08:58;99587.75;;;7.58;70.95
68634;BME280;55625;47.072;22.192;2022-12-07T13:11:43;99588.34;;;7.50;70.82
68634;BME280;55625;47.072;22.192;2022-12-07T13:28:16;99589.34;;;6.80;74.24
68634;BME280;55625;47.072;22.192;2022-12-07T13:33:38;99586.84;;;6.62;75.42
68634;BME280;55625;47.072;22.192;2022-12-07T13:36:08;99595.06;;;6.53;77.20
68634;BME280;55625;47.072;22.192;2022-12-07T13:38:39;99594.84;;;6.44;78.13
68634;BME280;55625;47.072;22.192;2022-12-07T13:41:14;99602.97;;;6.38;78.58
68634;BME280;55625;47.072;22.192;2022-12-07T13:43:52;99598.25;;;6.32;79.45
68634;BME280;55625;47.072;22.192;2022-12-07T13:46:51;99606.31;;;6.30;79.67
68634;BME280;55625;47.072;22.192;2022-12-07T13:49:31;99591.88;;;6.28;80.49
68634;BME280;55625;47.072;22.192;2022-12-07T13:52:18;99597.03;;;6.06;80.88
68634;BME280;55625;47.072;22.192;2022-12-07T13:54:48;99600.81;;;5.96;82.38
68634;BME280;55625;47.072;22.192;2022-12-07T13:57:16;99594.97;;;5.83;83.51
68634;BME280;55625;47.072;22.192;2022-12-07T13:59:43;99607.91;;;5.77;83.20
68634;BME280;55625;47.072;22.192;2022-12-07T14:02:30;99612.03;;;5.69;84.37
68634;BME280;55625;47.072;22.192;2022-12-07T14:13:57;99625.75;;;5.36;85.73
68634;BME280;55625;47.072;22.192;2022-12-07T14:16:36;99626.63;;;5.29;86.44
68634;BME280;55625;47.072;22.192;2022-12-07T14:25:22;99615.63;;;5.08;88.28
68634;BME280;55625;47.072;22.192;2022-12-07T14:27:58;99618.94;;;4.99;87.46
68634;BME280;55625;47.072;22.192;2022-12-07T14:30:35;99619.44;;;4.87;88.67
68634;BME280;55625;47.072;22.192;2022-12-07T14:33:04;99626.78;;;4.78;88.80
68634;BME280;55625;47.072;22.192;2022-12-07T14:35:31;99630.84;;;4.73;88.86
68634;BME280;55625;47.072;22.192;2022-12-07T14:37:57;99641.38;;;4.65;88.83
68634;BME280;55625;47.072;22.192;2022-12-07T14:40:28;99646.22;;;4.61;89.04
68634;BME280;55625;47.072;22.192;2022-12-07T14:43:01;99635.81;;;4.55;89.54
68634;BME280;55625;47.072;22.192;2022-12-07T14:45:28;99640.25;;;4.52;90.33
68634;BME280;55625;47.072;22.192;2022-12-07T14:47:54;99634.69;;;4.49;90.32
68634;BME280;55625;47.072;22.192;2022-12-07T14:50:21;99637.53;;;4.45;91.19
68634;BME280;55625;47.072;22.192;2022-12-07T14:52:58;99639.16;;;4.43;91.24
68634;BME280;55625;47.072;22.192;2022-12-07T14:55:28;99640.41;;;4.38;90.98
68634;BME280;55625;47.072;22.192;2022-12-07T14:57:55;99639.25;;;4.32;91.31
68634;BME280;55625;47.072;22.192;2022-12-07T15:00:24;99641.28;;;4.24;91.43
68634;BME280;55625;47.072;22.192;2022-12-07T15:02:51;99634.94;;;4.17;91.85
68634;BME280;55625;47.072;22.192;2022-12-07T15:05:18;99640.59;;;4.10;92.11
68634;BME280;55625;47.072;22.192;2022-12-07T15:07:45;99637.44;;;4.04;92.08
68634;BME280;55625;47.072;22.192;2022-12-07T15:10:21;99633.06;;;3.99;92.34
68634;BME280;55625;47.072;22.192;2022-12-07T15:12:47;99629.50;;;3.92;92.81
68634;BME280;55625;47.072;22.192;2022-12-07T15:15:13;99631.16;;;3.82;93.36
68634;BME280;55625;47.072;22.192;2022-12-07T15:17:40;99629.19;;;3.76;93.64
68634;BME280;55625;47.072;22.192;2022-12-07T15:20:12;99630.44;;;3.71;94.33
68634;BME280;55625;47.072;22.192;2022-12-07T15:22:38;99637.66;;;3.65;94.13
68634;BME280;55625;47.072;22.192;2022-12-07T15:25:04;99641.69;;;3.60;93.97
68634;BME280;55625;47.072;22.192;2022-12-07T15:27:32;99640.13;;;3.56;94.13
68634;BME280;55625;47.072;22.192;2022-12-07T15:29:57;99640.56;;;3.51;94.49
68634;BME280;55625;47.072;22.192;2022-12-07T15:32:23;99645.78;;;3.45;94.35
68634;BME280;55625;47.072;22.192;2022-12-07T15:34:49;99651.81;;;3.40;94.77
68634;BME280;55625;47.072;22.192;2022-12-07T15:37:16;99643.00;;;3.34;94.41
68634;BME280;55625;47.072;22.192;2022-12-07T15:39:41;99642.22;;;3.30;94.80
68634;BME280;55625;47.072;22.192;2022-12-07T15:42:07;99638.25;;;3.24;95.02
68634;BME280;55625;47.072;22.192;2022-12-07T15:44:33;99645.88;;;3.20;94.47
68634;BME280;55625;47.072;22.192;2022-12-07T15:47:17;99643.09;;;3.13;95.08
68634;BME280;55625;47.072;22.192;2022-12-07T15:49:43;99641.94;;;3.07;94.99